sensor_id;sensor_type;location;lat;lon;timestamp;pressure;altitude;pressure_sealevel;temperature;humidity
56928;BME280;60850;52.502;13.426;2022-09-09T00:02:18;100657.47;;;14.25;100.00
56928;BME280;60850;52.502;13.426;2022-09-09T00:04:52;100653.97;;;14.23;100.00
56928;BME280;60850;52.502;13.426;2022-09-09T00:07:25;100662.88;;;14.23;100.00
56928;BME280;60850;52.502;13.426;2022-09-09T00:10:05;100662.16;;;14.20;100.00
56928;BME280;60850;52.502;13.426;2022-09-09T00:12:41;100664.84;;;14.20;100.00
56928;BME280;60850;52.502;13.426;2022-09-09T00:15:12;100661.22;;;14.21;100.00
56928;BME280;60850;52.502;13.426;2022-09-09T00:17:45;100661.22;;;14.21;100.00
56928;BME280;60850;52.502;13.426;2022-09-09T00:20:20;100660.47;;;14.17;100.00
56928;BME280;60850;52.502;13.426;2022-09-09T00:22:57;100663.16;;;14.17;100.00
56928;BME280;60850;52.502;13.426;2022-09-09T00:25:34;100648.94;;;14.15;100.00
56928;BME280;60850;52.502;13.426;2022-09-09T00:28:13;100659.66;;;14.15;100.00
56928;BME280;60850;52.502;13.426;2022-09-09T00:30:41;100653.41;;;14.15;100.00
56928;BME280;60850;52.502;13.426;2022-09-09T00:33:11;100651.69;;;14.14;100.00
56928;BME280;60850;52.502;13.426;2022-09-09T00:35:44;100647.19;;;14.14;100.00
56928;BME280;60850;52.502;13.426;2022-09-09T00:38:14;100649.94;;;14.13;100.00
56928;BME280;60850;52.502;13.426;2022-09-09T00:40:48;100647.44;;;14.08;100.00
56928;BME280;60850;52.502;13.426;2022-09-09T00:43:25;100648.28;;;14.10;100.00
56928;BME280;60850;52.502;13.426;2022-09-09T00:46:02;100650.13;;;14.08;100.00
56928;BME280;60850;52.502;13.426;2022-09-09T00:48:38;100645.84;;;14.04;100.00
56928;BME280;60850;52.502;13.426;2022-09-09T00:51:14;100644.97;;;14.04;100.00
56928;BME280;60850;52.502;13.426;2022-09-09T00:53:51;100648.59;;;14.02;100.00
56928;BME280;60850;52.502;13.426;2022-09-09T00:56:26;100651.31;;;14.01;100.00
56928;BME280;60850;52.502;13.426;2022-09-09T00:59:00;100655.00;;;13.98;100.00
56928;BME280;60850;52.502;13.426;2022-09-09T01:01:32;100652.34;;;13.98;100.00
56928;BME280;60850;52.502;13.426;2022-09-09T01:04:03;100655.97;;;13.97;100.00
56928;BME280;60850;52.502;13.426;2022-09-09T01:06:34;100655.19;;;13.94;100.00
56928;BME280;60850;52.502;13.426;2022-09-09T01:09:15;100662.50;;;13.90;100.00
56928;BME280;60850;52.502;13.426;2022-09-09T01:11:55;100662.56;;;13.89;100.00
56928;BME280;60850;52.502;13.426;2022-09-09T01:14:38;100660.81;;;13.88;100.00
56928;BME280;60850;52.502;13.426;2022-09-09T01:17:12;100665.28;;;13.87;100.00
56928;BME280;60850;52.502;13.426;2022-09-09T01:19:52;100659.91;;;13.89;100.00
56928;BME280;60850;52.502;13.426;2022-09-09T01:22:26;100660.94;;;13.85;100.00
56928;BME280;60850;52.502;13.426;2022-09-09T01:25:13;100656.59;;;13.82;100.00
56928;BME280;60850;52.502;13.426;2022-09-09T01:27:48;100662.06;;;13.79;100.00
56928;BME280;60850;52.502;13.426;2022-09-09T01:30:17;100662.13;;;13.78;100.00
56928;BME280;60850;52.502;13.426;2022-09-09T01:32:46;100659.59;;;13.74;100.00
56928;BME280;60850;52.502;13.426;2022-09-09T01:35:22;100657.72;;;13.77;100.00
56928;BME280;60850;52.502;13.426;2022-09-09T01:37:54;100657.56;;;13.80;100.00
56928;BME280;60850;52.502;13.426;2022-09-09T01:40:22;100658.66;;;13.76;100.00
56928;BME280;60850;52.502;13.426;2022-09-09T01:42:50;100657.91;;;13.72;100.00
56928;BME280;60850;52.502;13.426;2022-09-09T01:45:18;100647.00;;;13.77;100.00
56928;BME280;60850;52.502;13.426;2022-09-09T01:47:46;100648.13;;;13.71;100.00
56928;BME280;60850;52.502;13.426;2022-09-09T01:50:15;100645.38;;;13.72;100.00
56928;BME280;60850;52.502;13.426;2022-09-09T01:52:44;100654.47;;;13.68;100.00
56928;BME280;60850;52.502;13.426;2022-09-09T01:55:13;100655.34;;;13.69;100.00
56928;BME280;60850;52.502;13.426;2022-09-09T01:57:50;100650.06;;;13.67;100.00
56928;BME280;60850;52.502;13.426;2022-09-09T02:00:21;100644.25;;;13.56;100.00
56928;BME280;60850;52.502;13.426;2022-09-09T02:02:53;100647.00;;;13.55;100.00
56928;BME280;60850;52.502;13.426;2022-09-09T02:05:32;100647.97;;;13.52;100.00
56928;BME280;60850;52.502;13.426;2022-09-09T02:08:06;100658.81;;;13.49;100.00
56928;BME280;60850;52.502;13.426;2022-09-09T02:10:46;100653.56;;;13.46;100.00
56928;BME280;60850;52.502;13.426;2022-09-09T02:13:20;100666.09;;;13.45;100.00
56928;BME280;60850;52.502;13.426;2022-09-09T02:15:52;100667.03;;;13.44;100.00
56928;BME280;60850;52.502;13.426;2022-09-09T02:18:25;100668.75;;;13.47;100.00
56928;BME280;60850;52.502;13.426;2022-09-09T02:20:53;100674.81;;;13.51;100.00
56928;BME280;60850;52.502;13.426;2022-09-09T02:23:20;100675.75;;;13.50;100.00
56928;BME280;60850;52.502;13.426;2022-09-09T02:25:48;100662.31;;;13.51;100.00
56928;BME280;60850;52.502;13.426;2022-09-09T02:28:21;100665.94;;;13.50;100.00
56928;BME280;60850;52.502;13.426;2022-09-09T02:30:50;100658.03;;;13.47;100.00
56928;BME280;60850;52.502;13.426;2022-09-09T02:33:23;100665.22;;;13.45;100.00
56928;BME280;60850;52.502;13.426;2022-09-09T02:35:52;100662.53;;;13.45;100.00
56928;BME280;60850;52.502;13.426;2022-09-09T02:38:21;100659.88;;;13.45;100.00
56928;BME280;60850;52.502;13.426;2022-09-09T02:40:50;100661.69;;;13.44;100.00
56928;BME280;60850;52.502;13.426;2022-09-09T02:43:17;100658.13;;;13.44;100.00
56928;BME280;60850;52.502;13.426;2022-09-09T02:45:55;100666.16;;;13.44;100.00
56928;BME280;60850;52.502;13.426;2022-09-09T02:48:30;100651.03;;;13.43;100.00
56928;BME280;60850;52.502;13.426;2022-09-09T02:51:07;100659.75;;;13.48;100.00
56928;BME280;60850;52.502;13.426;2022-09-09T02:53:42;100655.38;;;13.45;100.00
56928;BME280;60850;52.502;13.426;2022-09-09T02:56:14;100657.19;;;13.45;100.00
56928;BME280;60850;52.502;13.426;2022-09-09T02:58:43;100653.72;;;13.43;100.00
56928;BME280;60850;52.502;13.426;2022-09-09T03:01:12;100650.97;;;13.44;100.00
56928;BME280;60850;52.502;13.426;2022-09-09T03:03:39;100660.94;;;13.41;100.00
56928;BME280;60850;52.502;13.426;2022-09-09T03:06:07;100655.59;;;13.41;100.00
56928;BME280;60850;52.502;13.426;2022-09-09T03:08:35;100677.06;;;13.39;100.00
56928;BME280;60850;52.502;13.426;2022-09-09T03:11:02;100673.75;;;13.33;100.00
56928;BME280;60850;52.502;13.426;2022-09-09T03:13:29;100672.81;;;13.34;100.00
56928;BME280;60850;52.502;13.426;2022-09-09T03:15:57;100675.59;;;13.31;100.00
56928;BME280;60850;52.502;13.426;2022-09-09T03:18:25;100678.41;;;13.28;100.00
56928;BME280;60850;52.502;13.426;2022-09-09T03:20:53;100673.13;;;13.26;100.00
56928;BME280;60850;52.502;13.426;2022-09-09T03:23:20;100677.53;;;13.27;100.00
56928;BME280;60850;52.502;13.426;2022-09-09T03:25:48;100684.69;;;13.27;100.00
56928;BME280;60850;52.502;13.426;2022-09-09T03:28:16;100680.28;;;13.26;100.00
56928;BME280;60850;52.502;13.426;2022-09-09T03:30:43;100681.19;;;13.25;100.00
56928;BME280;60850;52.502;13.426;2022-09-09T03:33:10;100688.41;;;13.23;100.00
56928;BME280;60850;52.502;13.426;2022-09-09T03:35:45;100689.41;;;13.20;100.00
56928;BME280;60850;52.502;13.426;2022-09-09T03:38:14;100693.03;;;13.17;100.00
56928;BME280;60850;52.502;13.426;2022-09-09T03:40:48;100686.78;;;13.18;100.00
56928;BME280;60850;52.502;13.426;2022-09-09T03:43:15;100685.13;;;13.14;100.00
56928;BME280;60850;52.502;13.426;2022-09-09T03:45:45;100681.66;;;13.12;100.00
56928;BME280;60850;52.502;13.426;2022-09-09T03:48:13;100685.25;;;13.11;100.00
56928;BME280;60850;52.502;13.426;2022-09-09T03:50:45;100690.47;;;13.14;100.00
56928;BME280;60850;52.502;13.426;2022-09-09T03:53:14;100691.47;;;13.12;100.00
56928;BME280;60850;52.502;13.426;2022-09-09T03:55:43;100683.56;;;13.09;100.00
56928;BME280;60850;52.502;13.426;2022-09-09T03:58:12;100694.25;;;13.09;100.00
56928;BME280;60850;52.502;13.426;2022-09-09T04:00:39;100686.38;;;13.06;100.00
56928;BME280;60850;52.502;13.426;2022-09-09T04:03:08;100684.66;;;13.03;100.00
56928;BME280;60850;52.502;13.426;2022-09-09T04:05:35;100685.72;;;12.99;100.00
56928;BME280;60850;52.502;13.426;2022-09-09T04:08:06;100683.09;;;12.98;100.00
56928;BME280;60850;52.502;13.426;2022-09-09T04:10:33;100676.03;;;12.95;100.00
56928;BME280;60850;52.502;13.426;2022-09-09T04:13:02;100681.31;;;12.97;100.00
56928;BME280;60850;52.502;13.426;2022-09-09T04:15:29;100676.97;;;12.94;100.00
56928;BME280;60850;52.502;13.426;2022-09-09T04:17:56;100676.09;;;12.93;100.00
56928;BME280;60850;52.502;13.426;2022-09-09T04:20:23;100684.19;;;12.92;100.00
56928;BME280;60850;52.502;13.426;2022-09-09T04:22:50;100685.06;;;12.92;100.00
56928;BME280;60850;52.502;13.426;2022-09-09T04:25:18;100681.59;;;12.90;100.00
56928;BME280;60850;52.502;13.426;2022-09-09T04:27:45;100688.69;;;12.91;100.00
56928;BME280;60850;52.502;13.426;2022-09-09T04:30:13;100692.22;;;12.92;100.00
56928;BME280;60850;52.502;13.426;2022-09-09T04:32:40;100697.56;;;12.92;100.00
56928;BME280;60850;52.502;13.426;2022-09-09T04:35:07;100698.38;;;12.94;100.00
56928;BME280;60850;52.502;13.426;2022-09-09T04:37:34;100698.38;;;12.94;100.00
56928;BME280;60850;52.502;13.426;2022-09-09T04:40:01;100698.28;;;12.97;100.00
56928;BME280;60850;52.502;13.426;2022-09-09T04:42:30;100704.31;;;13.02;100.00
56928;BME280;60850;52.502;13.426;2022-09-09T04:44:57;100697.06;;;13.06;100.00
56928;BME280;60850;52.502;13.426;2022-09-09T04:47:24;100696.06;;;13.08;100.00
56928;BME280;60850;52.502;13.426;2022-09-09T04:49:50;100703.81;;;13.16;100.00
56928;BME280;60850;52.502;13.426;2022-09-09T04:52:20;100701.81;;;13.23;100.00
56928;BME280;60850;52.502;13.426;2022-09-09T04:54:47;100704.25;;;13.29;100.00
56928;BME280;60850;52.502;13.426;2022-09-09T04:57:14;100711.13;;;13.36;100.00
56928;BME280;60850;52.502;13.426;2022-09-09T04:59:42;100717.03;;;13.44;100.00
56928;BME280;60850;52.502;13.426;2022-09-09T05:02:11;100714.78;;;13.57;100.00
56928;BME280;60850;52.502;13.426;2022-09-09T05:04:39;100711.69;;;13.67;100.00
56928;BME280;60850;52.502;13.426;2022-09-09T05:07:06;100721.16;;;13.76;100.00
56928;BME280;60850;52.502;13.426;2022-09-09T05:09:33;100719.09;;;13.83;100.00
56928;BME280;60850;52.502;13.426;2022-09-09T05:12:00;100713.03;;;13.78;100.00
56928;BME280;60850;52.502;13.426;2022-09-09T05:14:28;100712.19;;;13.99;100.00
56928;BME280;60850;52.502;13.426;2022-09-09T05:16:57;100711.13;;;14.23;100.00
56928;BME280;60850;52.502;13.426;2022-09-09T05:19:24;100707.16;;;14.34;100.00
56928;BME280;60850;52.502;13.426;2022-09-09T05:21:51;100708.63;;;14.41;100.00
56928;BME280;60850;52.502;13.426;2022-09-09T05:24:18;100705.75;;;14.45;100.00
56928;BME280;60850;52.502;13.426;2022-09-09T05:26:45;100709.88;;;14.54;100.00
56928;BME280;60850;52.502;13.426;2022-09-09T05:29:14;100710.34;;;14.64;100.00
56928;BME280;60850;52.502;13.426;2022-09-09T05:31:42;100709.41;;;14.65;100.00
56928;BME280;60850;52.502;13.426;2022-09-09T05:34:10;100705.59;;;14.70;100.00
56928;BME280;60850;52.502;13.426;2022-09-09T05:36:38;100699.78;;;14.79;100.00
56928;BME280;60850;52.502;13.426;2022-09-09T05:39:05;100699.53;;;14.86;100.00
56928;BME280;60850;52.502;13.426;2022-09-09T05:41:31;100702.47;;;14.79;100.00
56928;BME280;60850;52.502;13.426;2022-09-09T05:43:59;100700.13;;;14.92;100.00
56928;BME280;60850;52.502;13.426;2022-09-09T05:46:26;100686.09;;;14.86;100.00
56928;BME280;60850;52.502;13.426;2022-09-09T05:48:53;100695.34;;;14.99;100.00
56928;BME280;60850;52.502;13.426;2022-09-09T05:51:23;100707.44;;;15.09;100.00
56928;BME280;60850;52.502;13.426;2022-09-09T05:53:51;100699.59;;;15.42;100.00
56928;BME280;60850;52.502;13.426;2022-09-09T05:56:19;100698.94;;;15.56;100.00
56928;BME280;60850;52.502;13.426;2022-09-09T05:58:48;100695.22;;;15.79;100.00
56928;BME280;60850;52.502;13.426;2022-09-09T06:01:17;100695.75;;;15.85;100.00
56928;BME280;60850;52.502;13.426;2022-09-09T06:03:45;100695.84;;;16.55;100.00
56928;BME280;60850;52.502;13.426;2022-09-09T06:06:15;100696.56;;;16.41;100.00
56928;BME280;60850;52.502;13.426;2022-09-09T06:08:44;100694.44;;;16.30;100.00
56928;BME280;60850;52.502;13.426;2022-09-09T06:11:13;100707.78;;;17.01;100.00
56928;BME280;60850;52.502;13.426;2022-09-09T06:13:41;100707.88;;;16.99;100.00
56928;BME280;60850;52.502;13.426;2022-09-09T06:16:09;100712.97;;;16.71;100.00
56928;BME280;60850;52.502;13.426;2022-09-09T06:18:37;100706.75;;;16.34;100.00
56928;BME280;60850;52.502;13.426;2022-09-09T06:21:05;100709.28;;;16.20;100.00
56928;BME280;60850;52.502;13.426;2022-09-09T06:23:33;100715.59;;;16.19;100.00
56928;BME280;60850;52.502;13.426;2022-09-09T06:26:04;100714.50;;;16.23;100.00
56928;BME280;60850;52.502;13.426;2022-09-09T06:28:32;100714.50;;;16.23;100.00
56928;BME280;60850;52.502;13.426;2022-09-09T06:31:00;100706.34;;;16.25;100.00
56928;BME280;60850;52.502;13.426;2022-09-09T06:33:31;100697.28;;;16.44;100.00
56928;BME280;60850;52.502;13.426;2022-09-09T06:36:01;100715.72;;;16.87;100.00
56928;BME280;60850;52.502;13.426;2022-09-09T06:38:29;100716.97;;;17.30;100.00
56928;BME280;60850;52.502;13.426;2022-09-09T06:40:57;100720.09;;;17.22;100.00
56928;BME280;60850;52.502;13.426;2022-09-09T06:43:26;100718.59;;;17.17;100.00
56928;BME280;60850;52.502;13.426;2022-09-09T06:45:54;100718.28;;;17.23;100.00
56928;BME280;60850;52.502;13.426;2022-09-09T06:48:21;100720.59;;;18.25;100.00
56928;BME280;60850;52.502;13.426;2022-09-09T06:50:49;100716.00;;;19.59;100.00
56928;BME280;60850;52.502;13.426;2022-09-09T06:53:17;100713.59;;;19.40;100.00
56928;BME280;60850;52.502;13.426;2022-09-09T06:55:45;100711.16;;;20.32;100.00
56928;BME280;60850;52.502;13.426;2022-09-09T06:58:12;100697.44;;;24.28;100.00
56928;BME280;60850;52.502;13.426;2022-09-09T07:00:40;100696.34;;;27.67;82.88
56928;BME280;60850;52.502;13.426;2022-09-09T07:03:07;100702.75;;;30.04;60.05
56928;BME280;60850;52.502;13.426;2022-09-09T07:05:36;100708.19;;;31.36;49.45
56928;BME280;60850;52.502;13.426;2022-09-09T07:08:03;100701.50;;;32.86;44.89
56928;BME280;60850;52.502;13.426;2022-09-09T07:10:31;100704.09;;;33.70;39.72
56928;BME280;60850;52.502;13.426;2022-09-09T07:12:59;100716.59;;;34.74;38.10
56928;BME280;60850;52.502;13.426;2022-09-09T07:15:27;100719.56;;;35.22;36.07
56928;BME280;60850;52.502;13.426;2022-09-09T07:18:00;100708.50;;;36.39;33.37
56928;BME280;60850;52.502;13.426;2022-09-09T07:20:28;100709.84;;;37.43;31.38
56928;BME280;60850;52.502;13.426;2022-09-09T07:22:55;100714.63;;;37.87;29.63
56928;BME280;60850;52.502;13.426;2022-09-09T07:25:22;100719.41;;;37.53;30.09
56928;BME280;60850;52.502;13.426;2022-09-09T07:27:49;100712.56;;;36.50;31.18
56928;BME280;60850;52.502;13.426;2022-09-09T07:30:16;100710.00;;;36.48;31.34
56928;BME280;60850;52.502;13.426;2022-09-09T07:32:45;100719.44;;;36.74;30.86
56928;BME280;60850;52.502;13.426;2022-09-09T07:35:13;100713.03;;;36.93;30.90
56928;BME280;60850;52.502;13.426;2022-09-09T07:37:40;100719.91;;;34.63;32.74
56928;BME280;60850;52.502;13.426;2022-09-09T07:40:07;100710.38;;;33.93;34.53
56928;BME280;60850;52.502;13.426;2022-09-09T07:42:35;100716.06;;;33.32;35.24
56928;BME280;60850;52.502;13.426;2022-09-09T07:45:03;100717.59;;;31.97;37.91
56928;BME280;60850;52.502;13.426;2022-09-09T07:47:31;100705.44;;;32.84;36.86
56928;BME280;60850;52.502;13.426;2022-09-09T07:49:58;100718.84;;;34.06;34.66
56928;BME280;60850;52.502;13.426;2022-09-09T07:52:27;100717.28;;;34.98;32.99
56928;BME280;60850;52.502;13.426;2022-09-09T07:54:54;100716.47;;;35.60;31.86
56928;BME280;60850;52.502;13.426;2022-09-09T07:57:21;100722.31;;;35.43;31.94
56928;BME280;60850;52.502;13.426;2022-09-09T07:59:48;100724.75;;;35.94;31.79
56928;BME280;60850;52.502;13.426;2022-09-09T08:02:16;100716.66;;;36.80;29.69
56928;BME280;60850;52.502;13.426;2022-09-09T08:04:43;100719.13;;;36.36;30.32
56928;BME280;60850;52.502;13.426;2022-09-09T08:07:10;100729.19;;;37.89;29.33
56928;BME280;60850;52.502;13.426;2022-09-09T08:09:39;100728.25;;;38.85;27.64
56928;BME280;60850;52.502;13.426;2022-09-09T08:12:06;100730.63;;;38.81;26.35
56928;BME280;60850;52.502;13.426;2022-09-09T08:14:34;100736.56;;;39.16;26.66
56928;BME280;60850;52.502;13.426;2022-09-09T08:17:01;100730.75;;;38.23;26.90
56928;BME280;60850;52.502;13.426;2022-09-09T08:19:29;100735.88;;;35.04;31.53
56928;BME280;60850;52.502;13.426;2022-09-09T08:21:56;100738.22;;;33.77;33.57
56928;BME280;60850;52.502;13.426;2022-09-09T08:24:23;100728.56;;;32.45;36.27
56928;BME280;60850;52.502;13.426;2022-09-09T08:26:52;100736.88;;;30.44;40.23
56928;BME280;60850;52.502;13.426;2022-09-09T08:29:19;100726.94;;;28.63;46.00
56928;BME280;60850;52.502;13.426;2022-09-09T08:31:48;100730.59;;;27.53;53.11
56928;BME280;60850;52.502;13.426;2022-09-09T08:34:17;100725.09;;;26.97;62.09
56928;BME280;60850;52.502;13.426;2022-09-09T08:36:47;100728.59;;;26.60;61.79
56928;BME280;60850;52.502;13.426;2022-09-09T08:39:15;100735.41;;;26.06;64.97
56928;BME280;60850;52.502;13.426;2022-09-09T08:45:14;100728.44;;;25.01;74.64
56928;BME280;60850;52.502;13.426;2022-09-09T08:47:56;100725.28;;;24.63;78.29
56928;BME280;60850;52.502;13.426;2022-09-09T08:50:28;100731.28;;;24.14;85.99
56928;BME280;60850;52.502;13.426;2022-09-09T08:53:01;100724.03;;;23.92;92.43
56928;BME280;60850;52.502;13.426;2022-09-09T08:55:37;100733.66;;;23.07;93.42
56928;BME280;60850;52.502;13.426;2022-09-09T08:58:11;100741.94;;;23.05;100.00
56928;BME280;60850;52.502;13.426;2022-09-09T09:00:48;100731.78;;;23.18;100.00
56928;BME280;60850;52.502;13.426;2022-09-09T09:03:25;100728.34;;;23.16;99.00
56928;BME280;60850;52.502;13.426;2022-09-09T09:06:03;100732.53;;;23.09;98.31
56928;BME280;60850;52.502;13.426;2022-09-09T09:08:37;100734.03;;;23.13;97.81
56928;BME280;60850;52.502;13.426;2022-09-09T09:11:06;100735.41;;;23.52;97.89
56928;BME280;60850;52.502;13.426;2022-09-09T09:13:39;100735.34;;;24.20;93.08
56928;BME280;60850;52.502;13.426;2022-09-09T09:16:17;100721.38;;;24.56;86.56
56928;BME280;60850;52.502;13.426;2022-09-09T09:18:46;100724.94;;;25.10;83.81
56928;BME280;60850;52.502;13.426;2022-09-09T09:21:16;100736.28;;;25.36;81.97
56928;BME280;60850;52.502;13.426;2022-09-09T09:23:53;100737.28;;;25.35;81.49
56928;BME280;60850;52.502;13.426;2022-09-09T09:26:23;100727.19;;;25.26;77.17
56928;BME280;60850;52.502;13.426;2022-09-09T09:28:55;100718.00;;;25.27;79.17
56928;BME280;60850;52.502;13.426;2022-09-09T09:31:24;100726.78;;;25.30;78.79
56928;BME280;60850;52.502;13.426;2022-09-09T09:33:53;100728.56;;;24.99;79.87
56928;BME280;60850;52.502;13.426;2022-09-09T09:36:23;100724.97;;;24.99;83.27
56928;BME280;60850;52.502;13.426;2022-09-09T09:38:53;100723.84;;;25.01;84.35
56928;BME280;60850;52.502;13.426;2022-09-09T09:41:35;100717.50;;;24.59;81.14
56928;BME280;60850;52.502;13.426;2022-09-09T09:44:03;100725.41;;;24.30;86.10
56928;BME280;60850;52.502;13.426;2022-09-09T09:46:32;100718.34;;;24.27;85.22
56928;BME280;60850;52.502;13.426;2022-09-09T09:49:00;100725.19;;;24.33;87.82
56928;BME280;60850;52.502;13.426;2022-09-09T09:51:29;100730.38;;;24.36;87.90
56928;BME280;60850;52.502;13.426;2022-09-09T09:54:13;100726.06;;;24.33;86.90
56928;BME280;60850;52.502;13.426;2022-09-09T09:56:42;100723.44;;;24.32;87.21
56928;BME280;60850;52.502;13.426;2022-09-09T09:59:20;100719.75;;;24.33;86.68
56928;BME280;60850;52.502;13.426;2022-09-09T10:01:49;100719.09;;;24.29;85.55
56928;BME280;60850;52.502;13.426;2022-09-09T10:04:18;100721.94;;;24.28;88.85
56928;BME280;60850;52.502;13.426;2022-09-09T10:06:46;100722.34;;;24.34;87.67
56928;BME280;60850;52.502;13.426;2022-09-09T10:09:24;100725.38;;;23.98;88.94
56928;BME280;60850;52.502;13.426;2022-09-09T10:11:57;100724.53;;;23.97;92.80
56928;BME280;60850;52.502;13.426;2022-09-09T10:14:33;100733.06;;;23.93;91.75
56928;BME280;60850;52.502;13.426;2022-09-09T10:17:15;100727.63;;;23.93;89.71
56928;BME280;60850;52.502;13.426;2022-09-09T10:19:58;100722.88;;;24.06;87.84
56928;BME280;60850;52.502;13.426;2022-09-09T10:22:33;100726.03;;;24.22;86.57
56928;BME280;60850;52.502;13.426;2022-09-09T10:25:20;100727.03;;;24.21;87.48
56928;BME280;60850;52.502;13.426;2022-09-09T10:28:04;100726.78;;;24.24;88.17
56928;BME280;60850;52.502;13.426;2022-09-09T10:30:45;100735.19;;;24.32;84.95
56928;BME280;60850;52.502;13.426;2022-09-09T10:33:23;100734.91;;;24.03;86.82
56928;BME280;60850;52.502;13.426;2022-09-09T10:36:00;100729.47;;;24.03;88.98
56928;BME280;60850;52.502;13.426;2022-09-09T10:38:34;100730.81;;;23.98;88.57
56928;BME280;60850;52.502;13.426;2022-09-09T10:41:14;100738.09;;;24.08;87.23
56928;BME280;60850;52.502;13.426;2022-09-09T10:46:53;100732.91;;;24.05;86.73
56928;BME280;60850;52.502;13.426;2022-09-09T10:49:35;100728.91;;;24.21;84.51
56928;BME280;60850;52.502;13.426;2022-09-09T10:52:15;100729.00;;;24.42;83.78
56928;BME280;60850;52.502;13.426;2022-09-09T10:54:53;100732.41;;;24.55;81.47
56928;BME280;60850;52.502;13.426;2022-09-09T10:57:28;100727.22;;;24.73;81.20
56928;BME280;60850;52.502;13.426;2022-09-09T11:00:03;100725.28;;;24.63;81.04
56928;BME280;60850;52.502;13.426;2022-09-09T11:02:32;100727.03;;;24.64;83.05
56928;BME280;60850;52.502;13.426;2022-09-09T11:05:04;100731.13;;;24.59;84.99
56928;BME280;60850;52.502;13.426;2022-09-09T11:07:37;100733.44;;;24.31;87.61
56928;BME280;60850;52.502;13.426;2022-09-09T11:10:13;100727.25;;;23.97;84.92
56928;BME280;60850;52.502;13.426;2022-09-09T11:12:45;100724.03;;;23.58;87.28
56928;BME280;60850;52.502;13.426;2022-09-09T11:15:18;100729.59;;;23.35;90.91
56928;BME280;60850;52.502;13.426;2022-09-09T11:17:50;100728.47;;;23.37;91.88
56928;BME280;60850;52.502;13.426;2022-09-09T11:20:21;100730.44;;;23.24;92.92
56928;BME280;60850;52.502;13.426;2022-09-09T11:22:53;100734.91;;;23.14;92.98
56928;BME280;60850;52.502;13.426;2022-09-09T11:25:26;100732.69;;;23.19;93.98
56928;BME280;60850;52.502;13.426;2022-09-09T11:28:05;100734.66;;;23.39;95.23
56928;BME280;60850;52.502;13.426;2022-09-09T11:30:45;100720.09;;;23.40;94.50
56928;BME280;60850;52.502;13.426;2022-09-09T11:33:42;100723.06;;;23.48;94.80
56928;BME280;60850;52.502;13.426;2022-09-09T11:36:33;100719.34;;;23.49;95.11
56928;BME280;60850;52.502;13.426;2022-09-09T11:39:17;100727.88;;;23.56;94.84
56928;BME280;60850;52.502;13.426;2022-09-09T11:41:51;100729.50;;;23.70;95.51
56928;BME280;60850;52.502;13.426;2022-09-09T11:44:28;100717.16;;;24.09;94.80
56928;BME280;60850;52.502;13.426;2022-09-09T11:46:56;100712.44;;;24.22;91.34
56928;BME280;60850;52.502;13.426;2022-09-09T11:49:27;100713.56;;;24.20;90.78
56928;BME280;60850;52.502;13.426;2022-09-09T11:51:56;100719.03;;;24.08;87.12
56928;BME280;60850;52.502;13.426;2022-09-09T11:54:29;100705.81;;;24.04;88.70
56928;BME280;60850;52.502;13.426;2022-09-09T11:56:56;100708.19;;;23.97;88.08
56928;BME280;60850;52.502;13.426;2022-09-09T11:59:25;100702.22;;;24.03;86.32
56928;BME280;60850;52.502;13.426;2022-09-09T12:01:55;100706.28;;;24.09;85.44
56928;BME280;60850;52.502;13.426;2022-09-09T12:04:33;100702.97;;;24.05;83.68
56928;BME280;60850;52.502;13.426;2022-09-09T12:07:05;100701.66;;;24.21;81.67
56928;BME280;60850;52.502;13.426;2022-09-09T12:09:51;100699.50;;;24.47;79.89
56928;BME280;60850;52.502;13.426;2022-09-09T12:12:30;100692.25;;;24.57;80.65
56928;BME280;60850;52.502;13.426;2022-09-09T12:15:26;100691.13;;;24.38;80.90
56928;BME280;60850;52.502;13.426;2022-09-09T12:17:56;100687.41;;;23.51;81.07
56928;BME280;60850;52.502;13.426;2022-09-09T12:20:29;100677.91;;;23.35;86.96
56928;BME280;60850;52.502;13.426;2022-09-09T12:23:29;100683.47;;;23.22;86.68
56928;BME280;60850;52.502;13.426;2022-09-09T12:26:04;100683.97;;;23.05;86.47
56928;BME280;60850;52.502;13.426;2022-09-09T12:28:45;100682.34;;;22.91;85.43
56928;BME280;60850;52.502;13.426;2022-09-09T12:31:22;100683.63;;;22.74;86.89
56928;BME280;60850;52.502;13.426;2022-09-09T12:33:51;100681.38;;;22.68;90.14
56928;BME280;60850;52.502;13.426;2022-09-09T12:36:20;100677.13;;;22.53;87.09
56928;BME280;60850;52.502;13.426;2022-09-09T12:38:50;100682.34;;;22.56;89.16
56928;BME280;60850;52.502;13.426;2022-09-09T12:41:19;100675.41;;;22.52;90.12
56928;BME280;60850;52.502;13.426;2022-09-09T12:43:47;100670.72;;;22.54;89.05
56928;BME280;60850;52.502;13.426;2022-09-09T12:46:22;100664.31;;;22.66;92.16
56928;BME280;60850;52.502;13.426;2022-09-09T12:48:52;100664.47;;;22.75;93.60
56928;BME280;60850;52.502;13.426;2022-09-09T12:51:24;100668.25;;;22.86;92.55
56928;BME280;60850;52.502;13.426;2022-09-09T12:53:54;100667.00;;;22.90;86.68
56928;BME280;60850;52.502;13.426;2022-09-09T12:56:24;100668.63;;;22.92;85.37
56928;BME280;60850;52.502;13.426;2022-09-09T12:58:53;100665.91;;;23.03;87.26
56928;BME280;60850;52.502;13.426;2022-09-09T13:01:23;100676.16;;;23.11;88.53
56928;BME280;60850;52.502;13.426;2022-09-09T13:03:51;100673.59;;;23.21;87.74